Time;durP1;ratioP1;P1;durP2;ratioP2;P2;SDS_P1;SDS_P2;PMS_P1;PMS_P2;Temp;Humidity;BMP_temperature;BMP_pressure;BME280_temperature;BME280_humidity;BME280_pressure;Samples;Min_cycle;Max_cycle;Signal;HPM_P1;HPM_P2
2024/01/27 05:07:34;;;;;;;0.40;0.40;;;0.10;99.90;;;;;;4977028;23;20310;-65
2024/01/27 05:10:00;;;;;;;0.30;0.30;;;0.10;99.90;;;;;;4973489;28;20645;-65
2024/01/27 05:12:26;;;;;;;0.53;0.53;;;0.10;99.90;;;;;;4973600;28;20590;-64
2024/01/27 05:14:52;;;;;;;0.40;0.40;;;0.10;99.90;;;;;;4973801;28;20782;-66
2024/01/27 05:17:17;;;;;;;0.50;0.50;;;0.10;99.90;;;;;;4974007;28;20235;-66
2024/01/27 05:19:43;;;;;;;0.60;0.60;;;0.10;99.90;;;;;;4973006;28;20246;-64
2024/01/27 05:22:09;;;;;;;0.60;0.60;;;0.00;99.90;;;;;;4974214;28;20171;-66
2024/01/27 05:24:35;;;;;;;0.40;0.40;;;0.00;99.90;;;;;;4973671;28;20172;-67
2024/01/27 05:27:00;;;;;;;0.40;0.40;;;0.00;99.90;;;;;;4973926;28;20199;-66
2024/01/27 05:29:27;;;;;;;0.30;0.30;;;0.00;99.90;;;;;;4974113;28;20701;-65
2024/01/27 05:31:54;;;;;;;0.40;0.40;;;-0.10;99.90;;;;;;4974213;28;20647;-67
2024/01/27 05:34:20;;;;;;;0.40;0.40;;;0.00;99.90;;;;;;4973611;28;20255;-66
2024/01/27 05:36:49;;;;;;;0.40;0.40;;;0.00;99.90;;;;;;4972662;28;20231;-66
2024/01/27 05:39:14;;;;;;;0.40;0.40;;;0.00;99.90;;;;;;4972923;28;20226;-64
2024/01/27 05:41:40;;;;;;;0.40;0.40;;;0.00;99.90;;;;;;4976826;28;20207;-64
2024/01/27 05:44:06;;;;;;;0.40;0.40;;;-0.10;99.90;;;;;;4976659;28;20206;-65
2024/01/27 05:46:31;;;;;;;0.40;0.40;;;-0.10;99.90;;;;;;4977364;28;20200;-65
2024/01/27 05:49:01;;;;;;;0.50;0.50;;;-0.10;99.90;;;;;;4977809;28;20200;-65
2024/01/27 05:51:27;;;;;;;0.40;0.40;;;-0.10;99.90;;;;;;4975864;28;20177;-65
2024/01/27 05:53:52;;;;;;;0.30;0.30;;;-0.10;99.90;;;;;;4977756;28;20186;-64
2024/01/27 05:56:21;;;;;;;0.40;0.40;;;-0.10;99.90;;;;;;4977277;28;20191;-65
2024/01/27 05:58:47;;;;;;;0.40;0.40;;;-0.20;99.90;;;;;;4977578;28;20202;-67
2024/01/27 06:01:13;;;;;;;0.40;0.40;;;-0.20;99.90;;;;;;4976825;28;20179;-68
2024/01/27 06:03:42;;;;;;;0.40;0.40;;;-0.30;99.90;;;;;;4977617;28;20178;-65
2024/01/27 06:06:08;;;;;;;0.40;0.40;;;-0.40;99.90;;;;;;4976958;28;20645;-65
2024/01/27 06:08:33;;;;;;;0.40;0.40;;;-0.40;99.90;;;;;;4976088;28;20202;-65
2024/01/27 06:10:59;;;;;;;0.40;0.40;;;-0.40;99.90;;;;;;4976053;28;20511;-66
2024/01/27 06:13:25;;;;;;;0.40;0.40;;;-0.40;99.90;;;;;;4976117;28;20194;-64
2024/01/27 06:15:50;;;;;;;0.37;0.37;;;-0.50;99.90;;;;;;4976847;28;20570;-65
2024/01/27 06:18:16;;;;;;;0.50;0.50;;;-0.60;99.90;;;;;;4977100;28;20594;-65
2024/01/27 06:20:42;;;;;;;0.40;0.40;;;-0.70;99.90;;;;;;4977227;28;20730;-66
2024/01/27 06:23:08;;;;;;;0.40;0.40;;;-0.70;99.90;;;;;;4977112;28;20170;-66
2024/01/27 06:25:34;;;;;;;0.40;0.40;;;-0.70;99.90;;;;;;4976557;28;20188;-65
2024/01/27 06:28:00;;;;;;;0.40;0.40;;;-0.70;99.90;;;;;;4977150;28;20180;-65
2024/01/27 06:30:25;;;;;;;0.40;0.40;;;-0.80;99.90;;;;;;4977070;28;20175;-65
2024/01/27 06:32:51;;;;;;;0.43;0.43;;;-0.80;99.90;;;;;;4976848;28;20200;-65
2024/01/27 06:35:17;;;;;;;0.40;0.40;;;-0.80;99.90;;;;;;4976683;28;20187;-65
2024/01/27 06:37:42;;;;;;;0.60;0.60;;;-0.80;99.90;;;;;;4976697;28;20209;-64
2024/01/27 06:40:11;;;;;;;0.30;0.30;;;-0.80;99.90;;;;;;4976771;28;20486;-65
2024/01/27 06:42:37;;;;;;;0.30;0.30;;;-0.90;99.90;;;;;;4976837;28;20179;-64
2024/01/27 06:45:03;;;;;;;0.30;0.30;;;-0.80;99.90;;;;;;4976370;28;20175;-65
2024/01/27 06:47:29;;;;;;;0.60;0.60;;;-0.80;99.90;;;;;;4976589;28;20183;-65
2024/01/27 06:49:55;;;;;;;0.40;0.40;;;-0.90;99.90;;;;;;4976502;28;20414;-66
2024/01/27 06:52:21;;;;;;;0.47;0.47;;;-0.90;99.90;;;;;;4973945;28;20180;-65
2024/01/27 06:54:46;;;;;;;0.47;0.47;;;-0.80;99.90;;;;;;4974946;28;20183;-65
2024/01/27 06:57:23;;;;;;;0.40;0.40;;;-0.80;99.90;;;;;;4976301;28;20207;-65
2024/01/27 06:59:53;;;;;;;0.40;0.40;;;-0.90;99.90;;;;;;4976494;28;20182;-66
2024/01/27 07:02:28;;;;;;;0.40;0.40;;;-0.80;99.90;;;;;;4975046;28;20180;-65
2024/01/27 07:04:55;;;;;;;0.30;0.30;;;-0.80;99.90;;;;;;4974822;28;20537;-65
2024/01/27 07:07:25;;;;;;;0.40;0.40;;;-0.90;99.90;;;;;;4976091;28;20214;-64
2024/01/27 07:09:55;;;;;;;0.30;0.30;;;-0.90;99.90;;;;;;4976534;28;20180;-65
2024/01/27 07:12:21;;;;;;;0.40;0.40;;;-0.90;99.90;;;;;;4975840;28;20642;-65
2024/01/27 07:14:46;;;;;;;0.40;0.40;;;-0.90;99.90;;;;;;4974587;28;20185;-64
2024/01/27 07:17:12;;;;;;;0.40;0.40;;;-0.80;99.90;;;;;;4975881;28;20236;-64
2024/01/27 07:19:38;;;;;;;0.40;0.40;;;-0.80;99.90;;;;;;4976357;28;20199;-66
2024/01/27 07:22:03;;;;;;;0.40;0.40;;;-0.80;99.90;;;;;;4976162;28;20420;-66
2024/01/27 07:24:29;;;;;;;0.40;0.40;;;-0.80;99.90;;;;;;4976621;28;20370;-67
2024/01/27 07:26:55;;;;;;;0.30;0.30;;;-0.70;99.90;;;;;;4975991;28;20204;-67
2024/01/27 07:29:21;;;;;;;0.40;0.40;;;-0.60;99.90;;;;;;4976812;28;20419;-66
2024/01/27 07:31:47;;;;;;;0.40;0.40;;;-0.60;99.90;;;;;;4977215;28;20185;-69
2024/01/27 07:34:13;;;;;;;0.50;0.50;;;-0.40;99.90;;;;;;4976684;28;20180;-66
2024/01/27 07:36:38;;;;;;;0.37;0.37;;;-0.20;99.90;;;;;;4988710;28;20688;-65
2024/01/27 07:39:07;;;;;;;0.40;0.40;;;0.00;99.90;;;;;;4977350;28;20169;-65
2024/01/27 07:41:32;;;;;;;0.50;0.50;;;0.20;99.90;;;;;;4986521;28;20206;-66
2024/01/27 07:44:08;;;;;;;0.30;0.30;;;0.30;99.90;;;;;;4995650;28;20180;-64
2024/01/27 07:46:34;;;;;;;0.40;0.40;;;0.30;99.90;;;;;;4995189;28;20193;-63
2024/01/27 07:48:59;;;;;;;0.40;0.40;;;0.40;99.90;;;;;;4994453;28;20214;-63
2024/01/27 07:51:25;;;;;;;0.57;0.57;;;0.50;99.90;;;;;;4995925;28;20182;-62
2024/01/27 07:53:50;;;;;;;0.37;0.37;;;0.50;99.90;;;;;;4986069;28;20234;-62
2024/01/27 07:56:16;;;;;;;0.30;0.30;;;0.70;99.90;;;;;;4976087;28;20488;-61
2024/01/27 07:58:42;;;;;;;0.30;0.30;;;0.90;99.90;;;;;;4975665;28;20246;-62
2024/01/27 08:01:07;;;;;;;0.40;0.40;;;1.30;99.90;;;;;;4976279;28;20568;-63
2024/01/27 08:03:33;;;;;;;0.40;0.40;;;1.50;99.90;;;;;;4974055;28;20179;-63
2024/01/27 08:05:59;;;;;;;0.30;0.30;;;1.70;99.90;;;;;;4975063;28;20195;-63
2024/01/27 08:08:25;;;;;;;0.40;0.40;;;1.70;99.90;;;;;;4973884;28;20191;-64
2024/01/27 08:10:50;;;;;;;0.37;0.37;;;1.70;99.90;;;;;;4974878;28;20231;-64
2024/01/27 08:13:16;;;;;;;0.30;0.30;;;1.70;99.90;;;;;;4973290;28;20199;-65
2024/01/27 08:15:41;;;;;;;0.30;0.30;;;1.90;99.90;;;;;;4974255;28;20192;-64
2024/01/27 08:18:07;;;;;;;0.30;0.30;;;2.10;99.90;;;;;;4974712;28;20228;-65
2024/01/27 08:20:33;;;;;;;0.40;0.40;;;2.20;99.90;;;;;;4981201;28;20260;-66
2024/01/27 08:22:58;;;;;;;0.30;0.30;;;2.30;99.90;;;;;;4993066;28;20238;-62
2024/01/27 08:25:24;;;;;;;0.30;0.30;;;2.40;99.90;;;;;;4992409;28;20231;-63
2024/01/27 08:27:49;;;;;;;0.40;0.40;;;2.40;99.90;;;;;;4994380;28;20183;-61
2024/01/27 08:30:15;;;;;;;0.33;0.33;;;2.40;99.90;;;;;;4992917;28;20518;-64
2024/01/27 08:32:41;;;;;;;0.50;0.50;;;2.50;99.90;;;;;;4994193;28;20223;-64
2024/01/27 08:35:07;;;;;;;0.30;0.30;;;2.60;99.90;;;;;;4993439;28;20184;-64
2024/01/27 08:37:38;;;;;;;0.30;0.30;;;2.80;99.90;;;;;;4993901;28;20205;-64
2024/01/27 08:40:07;;;;;;;0.40;0.40;;;2.90;99.90;;;;;;4994407;28;20253;-65
2024/01/27 08:42:33;;;;;;;0.30;0.30;;;3.10;99.90;;;;;;4993724;28;20174;-61
2024/01/27 08:44:59;;;;;;;0.30;0.30;;;3.40;99.90;;;;;;4992103;28;20175;-62
2024/01/27 08:47:24;;;;;;;0.40;0.40;;;3.70;99.90;;;;;;4993806;28;20411;-62
2024/01/27 08:49:50;;;;;;;0.30;0.30;;;4.00;99.90;;;;;;4993306;28;20521;-62
2024/01/27 08:52:15;;;;;;;0.30;0.20;;;4.40;99.90;;;;;;4992715;28;20175;-62
2024/01/27 08:54:41;;;;;;;0.40;0.40;;;4.90;99.90;;;;;;4991129;28;20541;-63
2024/01/27 08:57:06;;;;;;;0.30;0.30;;;5.60;99.90;;;;;;4993274;28;20300;-63
2024/01/27 08:59:32;;;;;;;0.30;0.30;;;6.30;99.90;;;;;;4988654;28;20193;-66
2024/01/27 09:01:59;;;;;;;0.30;0.20;;;7.10;99.90;;;;;;4978390;28;20278;-64
2024/01/27 09:04:24;;;;;;;0.30;0.30;;;7.90;99.90;;;;;;4976276;28;20414;-66
2024/01/27 09:06:50;;;;;;;0.30;0.30;;;8.60;99.90;;;;;;4993287;28;20778;-67
2024/01/27 09:09:15;;;;;;;0.30;0.30;;;9.10;99.90;;;;;;4993585;28;20203;-65
2024/01/27 09:11:42;;;;;;;0.30;0.20;;;9.40;99.90;;;;;;4993290;28;20174;-68
2024/01/27 09:14:07;;;;;;;0.37;0.30;;;9.70;99.90;;;;;;4993425;28;20208;-65
2024/01/27 09:16:34;;;;;;;0.30;0.30;;;9.80;99.90;;;;;;4992234;28;20430;-68
2024/01/27 09:19:00;;;;;;;0.30;0.30;;;9.90;99.90;;;;;;4991935;28;20237;-66
2024/01/27 09:21:28;;;;;;;0.40;0.40;;;9.80;99.90;;;;;;4975035;28;20952;-65
2024/01/27 09:23:57;;;;;;;0.30;0.30;;;9.70;99.90;;;;;;4974084;28;20422;-66
2024/01/27 09:26:24;;;;;;;0.30;0.30;;;9.90;99.90;;;;;;4973416;28;20438;-67
2024/01/27 09:28:55;;;;;;;0.30;0.30;;;10.20;99.90;;;;;;4973806;28;20502;-69
2024/01/27 09:31:25;;;;;;;0.40;0.40;;;10.70;99.90;;;;;;4974001;28;20414;-68
2024/01/27 09:33:52;;;;;;;0.30;0.30;;;11.20;98.10;;;;;;4981073;28;20430;-65
2024/01/27 09:36:19;;;;;;;0.30;0.20;;;11.70;98.50;;;;;;4992571;28;20413;-67
2024/01/27 09:38:45;;;;;;;0.30;0.30;;;12.10;97.00;;;;;;4993118;28;20429;-65
2024/01/27 09:41:13;;;;;;;0.30;0.20;;;12.30;95.50;;;;;;4974726;28;20404;-67
2024/01/27 09:43:44;;;;;;;0.30;0.30;;;12.50;95.40;;;;;;4991825;28;20432;-69
2024/01/27 09:46:13;;;;;;;0.47;0.47;;;12.70;94.60;;;;;;4973614;28;20417;-67
2024/01/27 09:48:39;;;;;;;0.47;0.47;;;13.00;94.40;;;;;;4973761;28;20388;-66
2024/01/27 09:51:09;;;;;;;0.30;0.30;;;13.20;94.20;;;;;;4973702;28;20487;-68
2024/01/27 09:53:35;;;;;;;0.90;0.80;;;13.60;93.60;;;;;;4973687;28;20415;-68
2024/01/27 09:56:03;;;;;;;0.30;0.20;;;13.90;93.10;;;;;;4973377;28;20427;-67
2024/01/27 09:58:30;;;;;;;0.30;0.30;;;14.10;92.80;;;;;;4973564;28;20589;-66
2024/01/27 10:00:57;;;;;;;0.33;0.33;;;14.20;92.40;;;;;;4992076;28;20427;-67
2024/01/27 10:03:26;;;;;;;0.30;0.30;;;14.20;92.20;;;;;;4992633;28;20820;-68
2024/01/27 10:05:57;;;;;;;0.30;0.20;;;13.90;92.10;;;;;;4992383;28;20440;-69
2024/01/27 10:08:24;;;;;;;0.30;0.20;;;13.80;92.30;;;;;;4982183;28;20522;-67
2024/01/27 10:10:55;;;;;;;0.50;0.40;;;13.90;92.60;;;;;;4981332;28;20430;-66
2024/01/27 10:13:26;;;;;;;0.30;0.30;;;13.80;91.90;;;;;;4971625;28;20732;-65
2024/01/27 10:16:02;;;;;;;0.33;0.33;;;13.80;92.40;;;;;;4964838;28;20454;-72
2024/01/27 10:18:29;;;;;;;0.30;0.30;;;13.80;92.70;;;;;;4972132;28;20987;-66
2024/01/27 10:20:55;;;;;;;0.30;0.30;;;13.80;92.50;;;;;;4973289;28;20442;-65
2024/01/27 10:23:21;;;;;;;0.30;0.30;;;13.50;93.20;;;;;;4973286;28;20447;-66
2024/01/27 10:25:46;;;;;;;0.30;0.30;;;13.70;92.90;;;;;;4972383;28;20560;-64
2024/01/27 10:28:12;;;;;;;0.50;0.50;;;13.70;93.00;;;;;;4974956;28;20227;-62
2024/01/27 10:30:38;;;;;;;0.30;0.20;;;13.60;92.90;;;;;;4976714;28;20172;-64
2024/01/27 10:33:04;;;;;;;0.60;0.40;;;13.60;92.70;;;;;;4976492;28;20180;-67
2024/01/27 10:35:30;;;;;;;0.30;0.20;;;13.20;92.70;;;;;;4974948;28;20258;-66
2024/01/27 10:37:56;;;;;;;0.30;0.30;;;13.20;93.30;;;;;;4976256;28;20466;-70
2024/01/27 10:40:26;;;;;;;0.30;0.20;;;13.20;93.10;;;;;;4975094;28;20461;-65
2024/01/27 10:43:08;;;;;;;0.40;0.40;;;13.30;93.20;;;;;;4975959;28;20415;-70
2024/01/27 10:45:55;;;;;;;0.40;0.40;;;13.40;93.30;;;;;;4986013;28;20450;-65
2024/01/27 10:48:22;;;;;;;0.43;0.43;;;13.60;93.20;;;;;;4927863;29;20404;-62
2024/01/27 10:50:49;;;;;;;2.00;0.50;;;14.00;92.80;;;;;;4918517;29;20878;-64
2024/01/27 10:53:24;;;;;;;0.30;0.30;;;14.10;92.40;;;;;;4935240;29;20500;-63
2024/01/27 10:55:55;;;;;;;0.93;0.93;;;14.40;92.00;;;;;;4931739;29;20457;-61
2024/01/27 10:58:23;;;;;;;0.30;0.30;;;14.40;91.40;;;;;;4918618;29;20476;-63
2024/01/27 11:00:50;;;;;;;0.30;0.20;;;14.20;91.70;;;;;;4935266;29;20951;-64
2024/01/27 11:03:21;;;;;;;0.30;0.20;;;14.20;91.60;;;;;;4919172;29;20468;-63
2024/01/27 11:05:47;;;;;;;0.30;0.20;;;14.30;91.20;;;;;;4934885;29;20439;-65
2024/01/27 11:08:14;;;;;;;0.30;0.20;;;14.20;91.00;;;;;;4931403;29;20813;-63
2024/01/27 11:10:40;;;;;;;0.30;0.30;;;14.00;91.10;;;;;;4933533;29;20757;-64
2024/01/27 11:13:07;;;;;;;0.30;0.30;;;13.80;91.50;;;;;;4920927;29;20568;-65
2024/01/27 11:15:33;;;;;;;0.30;0.30;;;13.70;91.70;;;;;;4940843;29;20790;-62
2024/01/27 11:18:03;;;;;;;0.33;0.33;;;13.60;92.10;;;;;;4931649;29;20439;-63
2024/01/27 11:20:31;;;;;;;0.30;0.30;;;13.40;92.10;;;;;;4942292;29;20351;-63
2024/01/27 11:23:10;;;;;;;0.30;0.30;;;13.00;92.20;;;;;;4934460;29;20444;-64
2024/01/27 11:25:36;;;;;;;0.33;0.33;;;12.50;92.60;;;;;;4958250;28;20805;-63
2024/01/27 11:28:14;;;;;;;0.60;0.60;;;11.90;92.50;;;;;;4975389;28;20431;-64
2024/01/27 11:30:44;;;;;;;0.30;0.30;;;11.20;93.10;;;;;;4975489;28;20176;-63
2024/01/27 11:33:10;;;;;;;0.30;0.30;;;10.50;93.70;;;;;;4975744;28;20380;-63
2024/01/27 11:35:36;;;;;;;0.30;0.30;;;9.90;95.20;;;;;;4975250;28;20776;-63
2024/01/27 11:38:01;;;;;;;0.30;0.30;;;9.50;96.30;;;;;;4973441;28;20468;-63
2024/01/27 11:40:28;;;;;;;0.50;0.50;;;9.20;96.90;;;;;;4975726;28;20206;-65
2024/01/27 11:43:01;;;;;;;0.32;0.32;;;8.90;97.20;;;;;;4974092;28;20257;-65
2024/01/27 11:45:30;;;;;;;0.30;0.30;;;8.60;98.50;;;;;;4973776;28;20298;-63
2024/01/27 11:47:56;;;;;;;0.40;0.40;;;8.40;99.40;;;;;;4975585;28;20525;-62
2024/01/27 11:50:23;;;;;;;0.38;0.38;;;8.30;99.90;;;;;;4975336;28;20179;-63
2024/01/27 11:52:49;;;;;;;0.30;0.30;;;8.10;99.90;;;;;;4975611;28;20647;-62
2024/01/27 11:55:15;;;;;;;0.35;0.35;;;8.00;99.90;;;;;;4973753;28;20612;-63
2024/01/27 11:57:44;;;;;;;0.30;0.30;;;7.90;99.90;;;;;;4975157;28;20223;-63
2024/01/27 12:00:10;;;;;;;0.30;0.30;;;7.80;99.90;;;;;;4975500;28;20180;-63
2024/01/27 12:02:37;;;;;;;0.30;0.30;;;7.70;99.90;;;;;;4975756;28;20258;-64
2024/01/27 12:05:04;;;;;;;0.30;0.30;;;7.70;99.90;;;;;;4974895;28;20244;-62
2024/01/27 12:07:31;;;;;;;0.40;0.40;;;7.70;99.90;;;;;;4973688;28;20251;-63
2024/01/27 12:09:56;;;;;;;0.73;0.70;;;7.70;99.90;;;;;;4975469;28;20526;-63
2024/01/27 12:12:22;;;;;;;0.30;0.30;;;7.70;99.90;;;;;;4975570;28;20183;-62
2024/01/27 12:14:50;;;;;;;0.57;0.57;;;7.60;99.90;;;;;;4975342;28;20191;-64
2024/01/27 12:17:16;;;;;;;0.32;0.32;;;7.60;99.90;;;;;;4975423;28;20200;-63
2024/01/27 12:19:49;;;;;;;0.30;0.30;;;7.60;99.90;;;;;;4975171;28;20173;-62
2024/01/27 12:22:28;;;;;;;0.30;0.30;;;7.70;99.90;;;;;;4974783;28;20175;-63
2024/01/27 12:24:54;;;;;;;0.50;0.50;;;7.70;99.90;;;;;;4973255;28;20178;-62
2024/01/27 12:27:22;;;;;;;0.30;0.30;;;7.80;99.90;;;;;;4974765;28;20283;-62
2024/01/27 12:29:49;;;;;;;0.88;0.82;;;7.80;99.90;;;;;;4973443;28;20180;-62
2024/01/27 12:32:15;;;;;;;0.30;0.30;;;7.90;99.90;;;;;;4973429;28;20172;-63
2024/01/27 12:34:42;;;;;;;0.40;0.40;;;7.90;99.90;;;;;;4972948;28;20203;-63
2024/01/27 12:37:10;;;;;;;0.30;0.30;;;8.00;99.90;;;;;;4973250;28;20700;-63
2024/01/27 12:39:36;;;;;;;0.30;0.30;;;8.00;99.90;;;;;;4974435;28;20180;-63
2024/01/27 12:42:02;;;;;;;0.30;0.30;;;8.10;99.90;;;;;;4973143;28;20195;-63
2024/01/27 12:44:27;;;;;;;0.30;0.30;;;8.10;99.90;;;;;;4974364;28;20207;-63
2024/01/27 12:46:53;;;;;;;0.40;0.40;;;8.10;99.90;;;;;;4974578;28;20192;-63
2024/01/27 12:49:19;;;;;;;0.37;0.37;;;8.10;99.90;;;;;;4973264;28;20563;-63
2024/01/27 12:51:45;;;;;;;0.43;0.43;;;8.00;99.90;;;;;;4974449;28;20411;-63
2024/01/27 12:54:11;;;;;;;0.30;0.30;;;8.00;99.90;;;;;;4972840;28;20399;-65
2024/01/27 12:56:37;;;;;;;0.30;0.30;;;8.10;99.90;;;;;;4974125;28;20199;-63
2024/01/27 12:59:02;;;;;;;0.30;0.30;;;8.10;99.90;;;;;;4974252;28;20550;-63
2024/01/27 13:01:28;;;;;;;0.40;0.40;;;8.10;99.90;;;;;;4974490;28;20175;-64
2024/01/27 13:03:54;;;;;;;0.30;0.30;;;8.10;99.90;;;;;;4974293;28;20168;-64
2024/01/27 13:06:20;;;;;;;0.30;0.30;;;8.10;99.90;;;;;;4973523;28;20191;-62
2024/01/27 13:08:46;;;;;;;0.30;0.30;;;8.10;99.90;;;;;;4974405;28;20179;-62
2024/01/27 13:11:13;;;;;;;0.63;0.63;;;8.10;99.90;;;;;;4974266;28;20172;-63
2024/01/27 13:13:40;;;;;;;0.30;0.30;;;8.00;99.90;;;;;;4972906;28;20422;-63
2024/01/27 13:16:06;;;;;;;0.30;0.30;;;8.10;99.90;;;;;;4973635;28;20188;-63
2024/01/27 13:18:32;;;;;;;0.30;0.30;;;8.10;99.90;;;;;;4974068;28;20294;-62
2024/01/27 13:20:57;;;;;;;0.30;0.30;;;8.20;99.90;;;;;;4974004;28;20259;-62
2024/01/27 13:23:23;;;;;;;0.30;0.30;;;8.10;99.90;;;;;;4974007;28;20168;-63
2024/01/27 13:25:49;;;;;;;0.30;0.30;;;8.20;99.90;;;;;;4973553;28;20658;-63
2024/01/27 13:28:14;;;;;;;0.30;0.30;;;8.20;99.90;;;;;;4974134;28;20174;-64
2024/01/27 13:30:41;;;;;;;0.60;0.60;;;8.20;99.90;;;;;;4974074;28;20255;-63
2024/01/27 13:33:07;;;;;;;0.35;0.35;;;8.20;99.90;;;;;;4974053;28;20172;-63
2024/01/27 13:35:33;;;;;;;0.35;0.35;;;8.20;99.90;;;;;;4972207;28;20219;-62
2024/01/27 13:37:59;;;;;;;0.30;0.30;;;8.30;99.90;;;;;;4973669;28;20647;-62
2024/01/27 13:40:24;;;;;;;0.30;0.20;;;8.30;99.90;;;;;;4977292;28;20168;-63
2024/01/27 13:42:50;;;;;;;0.30;0.30;;;8.30;99.90;;;;;;4993047;28;20167;-63
2024/01/27 13:45:16;;;;;;;0.30;0.30;;;8.30;99.90;;;;;;4992845;28;20623;-63
2024/01/27 13:47:41;;;;;;;0.30;0.30;;;8.30;99.80;;;;;;4993198;28;20175;-63
2024/01/27 13:50:07;;;;;;;0.30;0.30;;;8.30;99.00;;;;;;4993368;28;20172;-63
2024/01/27 13:52:36;;;;;;;0.30;0.30;;;8.30;98.80;;;;;;4992581;28;20180;-63
2024/01/27 13:55:03;;;;;;;0.30;0.30;;;8.40;98.50;;;;;;4992778;28;20630;-62
2024/01/27 13:57:29;;;;;;;0.38;0.38;;;8.40;98.10;;;;;;4993110;28;20597;-62
2024/01/27 13:59:54;;;;;;;0.30;0.30;;;8.40;98.00;;;;;;4993411;28;20168;-62
2024/01/27 14:02:20;;;;;;;0.30;0.30;;;8.40;98.10;;;;;;4995668;28;20434;-63
2024/01/27 14:04:46;;;;;;;1.27;0.77;;;8.40;98.40;;;;;;4996908;28;20668;-62
2024/01/27 14:07:11;;;;;;;0.30;0.30;;;8.30;98.80;;;;;;4996618;28;20221;-62
2024/01/27 14:09:37;;;;;;;0.30;0.30;;;8.30;98.70;;;;;;4995794;28;20515;-62
2024/01/27 14:12:03;;;;;;;0.40;0.40;;;8.30;98.60;;;;;;4995613;28;20175;-62
2024/01/27 14:14:29;;;;;;;0.30;0.27;;;8.40;97.90;;;;;;4996383;28;20757;-64
2024/01/27 14:16:56;;;;;;;0.40;0.40;;;8.40;96.40;;;;;;4996641;28;20462;-66
2024/01/27 14:19:21;;;;;;;0.30;0.30;;;8.40;96.10;;;;;;4996768;28;20853;-64
2024/01/27 14:21:47;;;;;;;0.30;0.30;;;8.40;96.20;;;;;;4995544;28;20199;-65
2024/01/27 14:24:14;;;;;;;0.40;0.40;;;8.50;96.00;;;;;;4989071;28;20552;-63
2024/01/27 14:26:39;;;;;;;0.30;0.30;;;8.50;96.10;;;;;;4994882;28;20231;-63
2024/01/27 14:29:06;;;;;;;0.38;0.38;;;8.50;96.10;;;;;;4993691;28;20270;-62
2024/01/27 14:31:32;;;;;;;0.32;0.32;;;8.50;96.00;;;;;;4996660;28;20566;-63
2024/01/27 14:33:58;;;;;;;0.33;0.33;;;8.60;95.90;;;;;;4991490;28;20177;-62
2024/01/27 14:36:25;;;;;;;0.30;0.30;;;8.60;96.00;;;;;;4977442;28;20196;-64
2024/01/27 14:38:51;;;;;;;0.40;0.40;;;8.60;96.00;;;;;;4976803;28;20797;-63
2024/01/27 14:41:17;;;;;;;0.40;0.40;;;8.50;96.00;;;;;;4976799;28;20251;-62
2024/01/27 14:43:43;;;;;;;0.40;0.40;;;8.50;96.10;;;;;;4976849;28;20176;-63
2024/01/27 14:46:09;;;;;;;0.30;0.30;;;8.50;96.20;;;;;;4976191;28;20184;-64
2024/01/27 14:48:35;;;;;;;0.30;0.30;;;8.50;96.20;;;;;;4976914;28;20634;-63
2024/01/27 14:51:03;;;;;;;0.30;0.30;;;8.50;96.50;;;;;;4974937;28;20231;-65
2024/01/27 14:53:29;;;;;;;0.40;0.40;;;8.50;96.60;;;;;;4975789;28;20251;-63
2024/01/27 14:55:57;;;;;;;0.30;0.30;;;8.50;96.90;;;;;;4975097;28;20544;-62
2024/01/27 14:58:23;;;;;;;0.75;0.50;;;8.50;97.20;;;;;;4977219;28;20659;-62
2024/01/27 15:00:52;;;;;;;0.40;0.40;;;8.40;97.30;;;;;;4976742;28;20173;-62
2024/01/27 15:03:23;;;;;;;0.40;0.40;;;8.40;97.50;;;;;;4976774;28;20160;-62
2024/01/27 15:05:49;;;;;;;0.40;0.40;;;8.40;97.60;;;;;;4974973;28;20219;-63
2024/01/27 15:08:18;;;;;;;0.30;0.30;;;8.40;97.70;;;;;;4976490;28;20185;-63
2024/01/27 15:10:44;;;;;;;0.40;0.40;;;8.40;97.80;;;;;;4976483;28;20172;-61
2024/01/27 15:13:11;;;;;;;0.30;0.30;;;8.40;97.40;;;;;;4975273;28;20165;-64
2024/01/27 15:15:37;;;;;;;0.30;0.30;;;8.30;96.90;;;;;;4974491;28;20216;-64
2024/01/27 15:18:04;;;;;;;0.30;0.30;;;8.30;97.00;;;;;;4974858;28;20203;-63
2024/01/27 15:20:31;;;;;;;0.30;0.30;;;8.20;96.30;;;;;;4976453;28;20176;-62
2024/01/27 15:22:56;;;;;;;0.30;0.30;;;8.20;96.30;;;;;;4976216;28;20211;-63
2024/01/27 15:25:22;;;;;;;0.40;0.40;;;8.20;96.80;;;;;;4975761;28;20271;-62
2024/01/27 15:27:50;;;;;;;0.30;0.30;;;8.20;96.80;;;;;;4976115;28;20179;-62
2024/01/27 15:30:17;;;;;;;0.30;0.30;;;8.20;96.90;;;;;;4976359;28;20175;-63
2024/01/27 15:32:43;;;;;;;0.30;0.30;;;8.10;97.30;;;;;;4976012;28;20179;-61
2024/01/27 15:35:08;;;;;;;0.40;0.40;;;8.10;97.00;;;;;;4975670;28;20179;-64
2024/01/27 15:37:38;;;;;;;0.30;0.20;;;8.10;97.10;;;;;;4975968;28;20204;-61
2024/01/27 15:40:07;;;;;;;0.40;0.40;;;8.00;97.10;;;;;;4975918;28;20199;-63
2024/01/27 15:42:33;;;;;;;0.30;0.30;;;8.00;97.10;;;;;;4975896;28;20215;-63
2024/01/27 15:44:58;;;;;;;0.33;0.33;;;8.00;97.00;;;;;;4975435;28;20172;-62
2024/01/27 15:47:24;;;;;;;0.30;0.30;;;7.90;96.90;;;;;;4974480;28;20267;-63
2024/01/27 15:49:56;;;;;;;0.40;0.40;;;7.80;96.70;;;;;;4974858;28;20238;-64
2024/01/27 15:52:23;;;;;;;0.30;0.30;;;7.80;96.80;;;;;;4974943;28;20254;-65
2024/01/27 15:54:49;;;;;;;0.30;0.30;;;7.70;96.90;;;;;;4974378;28;20307;-65
2024/01/27 15:57:15;;;;;;;0.30;0.30;;;7.60;97.00;;;;;;4972430;28;20659;-64
2024/01/27 15:59:42;;;;;;;0.30;0.30;;;7.60;97.10;;;;;;4973294;28;20172;-61
2024/01/27 16:02:08;;;;;;;0.30;0.30;;;7.60;97.30;;;;;;4974730;28;20230;-63
2024/01/27 16:04:33;;;;;;;0.40;0.40;;;7.50;97.40;;;;;;4973432;28;20543;-64
2024/01/27 16:06:59;;;;;;;0.60;0.60;;;7.40;97.30;;;;;;4974893;28;20270;-63
2024/01/27 16:09:26;;;;;;;0.30;0.30;;;7.30;97.70;;;;;;4975400;28;20658;-62
2024/01/27 16:11:54;;;;;;;0.40;0.40;;;7.30;98.30;;;;;;4975052;28;20179;-64
2024/01/27 16:14:20;;;;;;;0.30;0.30;;;7.20;98.60;;;;;;4974901;28;20535;-64
2024/01/27 16:16:46;;;;;;;0.30;0.30;;;7.10;99.00;;;;;;4974061;28;20239;-63
2024/01/27 16:19:12;;;;;;;0.30;0.30;;;7.00;99.10;;;;;;4974665;28;20558;-63
2024/01/27 16:21:38;;;;;;;0.43;0.43;;;6.90;99.40;;;;;;4973591;28;20172;-62
2024/01/27 16:24:05;;;;;;;0.43;0.43;;;6.90;99.60;;;;;;4951848;28;20208;-62
2024/01/27 16:26:32;;;;;;;0.30;0.30;;;6.80;99.80;;;;;;4942439;29;20440;-62
2024/01/27 16:28:57;;;;;;;0.30;0.30;;;6.70;99.90;;;;;;4937535;29;20192;-63
2024/01/27 16:31:23;;;;;;;0.30;0.30;;;6.60;99.90;;;;;;4943235;29;20276;-62
2024/01/27 16:33:50;;;;;;;0.30;0.30;;;6.50;99.90;;;;;;4934487;29;20536;-62
2024/01/27 16:36:16;;;;;;;0.30;0.30;;;6.40;99.90;;;;;;4934245;28;20197;-65
2024/01/27 16:38:41;;;;;;;0.30;0.30;;;6.30;99.90;;;;;;4933911;29;20221;-61
2024/01/27 16:41:07;;;;;;;0.40;0.40;;;6.30;99.90;;;;;;4934400;29;20172;-63
2024/01/27 16:43:33;;;;;;;0.40;0.40;;;6.20;99.90;;;;;;4934114;29;20600;-62
2024/01/27 16:46:00;;;;;;;0.37;0.37;;;6.10;99.90;;;;;;4949533;28;20200;-63
2024/01/27 16:48:26;;;;;;;0.40;0.40;;;6.10;99.90;;;;;;4934026;29;20192;-64
2024/01/27 16:50:52;;;;;;;0.30;0.30;;;6.00;99.90;;;;;;4935282;29;21064;-63
2024/01/27 16:53:18;;;;;;;0.30;0.30;;;5.90;99.90;;;;;;4934027;29;20187;-62
2024/01/27 16:55:44;;;;;;;0.30;0.30;;;5.90;99.90;;;;;;4977157;28;20212;-66
2024/01/27 16:58:10;;;;;;;0.30;0.30;;;5.90;99.90;;;;;;4954985;29;20270;-65
2024/01/27 17:00:36;;;;;;;0.40;0.40;;;5.90;99.90;;;;;;4966453;28;20184;-65
2024/01/27 17:03:01;;;;;;;0.30;0.30;;;5.80;99.90;;;;;;4974508;28;20211;-63
2024/01/27 17:05:27;;;;;;;0.30;0.30;;;5.80;99.90;;;;;;4972490;28;20230;-63
2024/01/27 17:07:52;;;;;;;0.30;0.30;;;5.70;99.90;;;;;;4973969;28;20207;-61
2024/01/27 17:10:18;;;;;;;0.40;0.40;;;5.70;99.90;;;;;;4973037;28;20164;-62
2024/01/27 17:12:45;;;;;;;0.50;0.50;;;5.60;99.90;;;;;;4967485;28;20599;-62
2024/01/27 17:15:11;;;;;;;0.30;0.30;;;5.60;99.90;;;;;;4955345;28;20179;-63
2024/01/27 17:17:37;;;;;;;0.30;0.30;;;5.50;99.90;;;;;;4972729;28;20250;-63
2024/01/27 17:20:04;;;;;;;0.40;0.40;;;5.50;99.90;;;;;;4974057;28;20172;-62
2024/01/27 17:22:31;;;;;;;4.72;1.15;;;5.40;99.90;;;;;;4973945;28;20263;-62
2024/01/27 17:25:01;;;;;;;0.40;0.40;;;5.40;99.90;;;;;;4973552;28;20171;-62
2024/01/27 17:27:27;;;;;;;0.77;0.77;;;5.30;99.90;;;;;;4972305;28;20178;-64
2024/01/27 17:29:53;;;;;;;0.30;0.30;;;5.30;99.90;;;;;;4973754;28;20194;-65
2024/01/27 17:32:21;;;;;;;0.87;0.87;;;5.20;99.90;;;;;;4973302;28;20668;-63
2024/01/27 17:34:47;;;;;;;0.30;0.30;;;5.10;99.90;;;;;;4956556;28;20194;-63
2024/01/27 17:37:12;;;;;;;0.30;0.30;;;5.10;99.90;;;;;;4975307;28;20695;-64
2024/01/27 17:39:38;;;;;;;0.30;0.30;;;5.00;99.90;;;;;;4976073;28;20193;-66
2024/01/27 17:42:04;;;;;;;0.30;0.30;;;4.90;99.90;;;;;;4975547;28;20187;-65
2024/01/27 17:44:30;;;;;;;0.33;0.33;;;4.90;99.90;;;;;;4977522;28;20217;-65
2024/01/27 17:46:55;;;;;;;0.30;0.30;;;4.80;99.90;;;;;;4977638;28;20443;-65
2024/01/27 17:49:22;;;;;;;0.30;0.30;;;4.70;99.90;;;;;;4977932;28;20174;-64
2024/01/27 17:51:47;;;;;;;0.40;0.40;;;4.70;99.90;;;;;;4977935;28;20211;-66
2024/01/27 17:54:13;;;;;;;0.30;0.30;;;4.60;99.90;;;;;;4977691;28;20206;-66
2024/01/27 17:56:39;;;;;;;0.30;0.30;;;4.60;99.90;;;;;;4977677;28;20289;-67